Time;durP1;ratioP1;P1;durP2;ratioP2;P2;SDS_P1;SDS_P2;PMS_P1;PMS_P2;Temp;Humidity;BMP_temperature;BMP_pressure;BME280_temperature;BME280_humidity;BME280_pressure;Samples;Min_cycle;Max_cycle;Signal;HPM_P1;HPM_P2
2022/10/22 00:01:39;;;;;;;25.58;12.10;;;;;;;;;;6276837;22;20191;-90
2022/10/22 00:11:25;;;;;;;24.73;11.80;;;;;;;;;;6276833;22;20172;-92
2022/10/22 00:14:34;;;;;;;21.73;12.13;;;;;;;;;;6260394;22;20171;-89
2022/10/22 00:17:48;;;;;;;25.77;11.98;;;;;;;;;;6278883;22;20195;-90
2022/10/22 00:20:56;;;;;;;31.15;12.50;;;;;;;;;;6278373;22;20156;-91
2022/10/22 00:24:04;;;;;;;26.67;12.27;;;;;;;;;;6277064;22;20212;-91
2022/10/22 00:27:12;;;;;;;24.33;12.27;;;;;;;;;;6259564;22;20168;-90
2022/10/22 00:30:18;;;;;;;24.48;12.45;;;;;;;;;;6277171;22;20152;-92
2022/10/22 00:33:24;;;;;;;25.30;11.52;;;;;;;;;;6275364;22;20208;-91
2022/10/22 00:36:32;;;;;;;25.35;12.63;;;;;;;;;;6275190;22;20172;-89
2022/10/22 00:39:38;;;;;;;27.23;13.10;;;;;;;;;;6274654;22;20167;-89
2022/10/22 00:42:53;;;;;;;24.48;12.93;;;;;;;;;;6275516;22;20191;-90
2022/10/22 00:46:01;;;;;;;28.95;12.30;;;;;;;;;;6277334;22;20191;-94
2022/10/22 00:56:02;;;;;;;21.63;11.38;;;;;;;;;;6278567;22;20243;-91
2022/10/22 01:05:51;;;;;;;26.88;11.82;;;;;;;;;;6274728;22;20164;-88
2022/10/22 01:09:02;;;;;;;29.33;11.85;;;;;;;;;;6269617;22;20168;-91
2022/10/22 01:12:12;;;;;;;24.27;12.00;;;;;;;;;;6269548;22;20152;-90
2022/10/22 01:15:23;;;;;;;27.20;11.95;;;;;;;;;;6267896;22;20168;-90
2022/10/22 01:18:32;;;;;;;24.00;12.32;;;;;;;;;;6268797;22;20645;-91
2022/10/22 01:21:41;;;;;;;26.45;11.93;;;;;;;;;;6267059;22;20205;-91
2022/10/22 01:24:56;;;;;;;23.88;12.65;;;;;;;;;;6266734;22;20167;-92
2022/10/22 01:28:08;;;;;;;23.45;12.23;;;;;;;;;;6267144;22;20172;-89
2022/10/22 01:31:16;;;;;;;28.88;12.13;;;;;;;;;;6267740;22;20163;-93
2022/10/22 01:34:23;;;;;;;29.52;12.25;;;;;;;;;;6268182;22;20176;-91
2022/10/22 01:37:30;;;;;;;27.70;13.15;;;;;;;;;;6266970;22;20210;-93
2022/10/22 01:47:54;;;;;;;25.08;13.30;;;;;;;;;;6265271;22;20257;-90
2022/10/22 01:51:08;;;;;;;26.42;13.80;;;;;;;;;;6266617;22;20219;-91
2022/10/22 01:54:19;;;;;;;40.40;16.17;;;;;;;;;;6267853;22;20242;-90
2022/10/22 01:57:32;;;;;;;38.65;15.98;;;;;;;;;;6266888;22;20187;-92
2022/10/22 02:00:39;;;;;;;22.92;12.50;;;;;;;;;;6265664;22;20168;-92
2022/10/22 02:03:53;;;;;;;24.75;12.20;;;;;;;;;;6264264;22;20194;-92
2022/10/22 02:07:00;;;;;;;28.88;12.90;;;;;;;;;;6266577;22;20180;-95
2022/10/22 02:10:06;;;;;;;25.55;12.73;;;;;;;;;;6268382;22;20172;-93
2022/10/22 02:13:14;;;;;;;27.85;13.65;;;;;;;;;;6267437;22;20543;-91
2022/10/22 02:16:23;;;;;;;26.20;13.30;;;;;;;;;;6264991;22;20164;-91
2022/10/22 02:19:31;;;;;;;25.95;13.05;;;;;;;;;;6265795;22;20186;-89
2022/10/22 02:22:37;;;;;;;28.55;14.40;;;;;;;;;;6265972;22;20228;-92
2022/10/22 02:25:44;;;;;;;29.05;12.85;;;;;;;;;;6267041;22;20164;-90
2022/10/22 02:28:53;;;;;;;39.50;13.40;;;;;;;;;;6268157;22;20234;-92
2022/10/22 02:32:00;;;;;;;29.67;13.15;;;;;;;;;;6266648;22;20233;-90
2022/10/22 02:35:08;;;;;;;33.92;15.07;;;;;;;;;;6265850;22;20168;-93
2022/10/22 02:38:13;;;;;;;55.67;14.77;;;;;;;;;;6268187;22;20167;-89
2022/10/22 02:41:19;;;;;;;30.35;12.60;;;;;;;;;;6270427;22;20720;-92
2022/10/22 02:44:31;;;;;;;28.35;12.30;;;;;;;;;;6269439;22;20588;-93
2022/10/22 02:47:37;;;;;;;29.50;12.98;;;;;;;;;;6270474;22;20199;-93
2022/10/22 02:50:43;;;;;;;28.08;11.50;;;;;;;;;;6270383;22;20163;-91
2022/10/22 02:53:48;;;;;;;28.73;11.98;;;;;;;;;;6269494;22;20191;-91
2022/10/22 02:56:53;;;;;;;26.98;11.65;;;;;;;;;;6270834;22;20175;-91
2022/10/22 02:59:58;;;;;;;27.23;12.35;;;;;;;;;;6271082;22;20240;-93
2022/10/22 03:03:03;;;;;;;24.58;12.27;;;;;;;;;;6268492;22;20271;-91
2022/10/22 03:06:09;;;;;;;25.52;11.80;;;;;;;;;;6269145;22;20174;-93
2022/10/22 03:09:14;;;;;;;26.85;11.98;;;;;;;;;;6270387;22;20618;-91
2022/10/22 03:12:19;;;;;;;33.03;13.02;;;;;;;;;;6270502;22;20164;-92
2022/10/22 03:15:25;;;;;;;25.55;12.15;;;;;;;;;;6270349;22;20215;-89
2022/10/22 03:18:30;;;;;;;26.52;13.00;;;;;;;;;;6269392;22;20718;-92
2022/10/22 03:21:41;;;;;;;30.95;12.55;;;;;;;;;;6269541;22;20156;-90
2022/10/22 03:24:48;;;;;;;24.52;12.52;;;;;;;;;;6269196;22;20315;-94
2022/10/22 03:27:55;;;;;;;29.58;12.25;;;;;;;;;;6267041;22;20163;-89
2022/10/22 03:31:00;;;;;;;26.23;12.80;;;;;;;;;;6269833;22;20190;-90
2022/10/22 03:34:06;;;;;;;27.73;12.23;;;;;;;;;;6267709;22;20218;-91
2022/10/22 03:37:13;;;;;;;31.98;12.75;;;;;;;;;;6270256;22;20167;-92
2022/10/22 03:40:19;;;;;;;27.38;12.10;;;;;;;;;;6268586;22;20169;-93
2022/10/22 03:43:24;;;;;;;26.02;13.30;;;;;;;;;;6266807;22;20176;-90
2022/10/22 03:46:31;;;;;;;29.08;13.00;;;;;;;;;;6266792;22;20187;-93
2022/10/22 03:49:36;;;;;;;30.88;13.27;;;;;;;;;;6266843;22;20168;-93
2022/10/22 03:52:43;;;;;;;23.13;12.95;;;;;;;;;;6266837;22;20212;-89
2022/10/22 03:55:48;;;;;;;27.55;13.25;;;;;;;;;;6269181;22;20171;-92
2022/10/22 03:58:56;;;;;;;30.10;13.35;;;;;;;;;;6267557;22;20167;-90
2022/10/22 04:02:05;;;;;;;32.65;12.68;;;;;;;;;;6266641;22;20203;-90
2022/10/22 04:05:10;;;;;;;24.38;13.05;;;;;;;;;;6267928;22;20192;-91
2022/10/22 04:08:16;;;;;;;30.08;13.45;;;;;;;;;;6264823;22;20235;-95
2022/10/22 04:11:21;;;;;;;32.58;13.27;;;;;;;;;;6266399;22;20163;-91
2022/10/22 04:14:27;;;;;;;29.27;15.40;;;;;;;;;;6265972;22;20167;-93
2022/10/22 04:17:34;;;;;;;32.42;14.88;;;;;;;;;;6267964;22;20159;-88
2022/10/22 04:20:39;;;;;;;39.25;16.48;;;;;;;;;;6268392;22;20206;-92
2022/10/22 04:23:47;;;;;;;41.08;16.20;;;;;;;;;;6268778;22;20521;-90
2022/10/22 04:26:54;;;;;;;35.15;15.77;;;;;;;;;;6268971;22;20148;-94
2022/10/22 04:29:59;;;;;;;38.40;17.02;;;;;;;;;;6269143;22;20188;-94
2022/10/22 04:33:04;;;;;;;34.50;15.38;;;;;;;;;;6268621;22;20217;-93
2022/10/22 04:36:11;;;;;;;36.42;18.55;;;;;;;;;;6268651;22;20168;-96
2022/10/22 04:39:18;;;;;;;40.97;17.40;;;;;;;;;;6267963;22;20187;-92
2022/10/22 04:42:23;;;;;;;35.97;17.48;;;;;;;;;;6268177;22;20175;-92
2022/10/22 04:45:34;;;;;;;38.10;17.73;;;;;;;;;;6267686;22;20171;-94
2022/10/22 04:48:40;;;;;;;36.53;16.65;;;;;;;;;;6267212;22;20191;-93
2022/10/22 04:51:45;;;;;;;43.90;20.73;;;;;;;;;;6267844;22;20168;-91
2022/10/22 04:54:52;;;;;;;33.95;16.88;;;;;;;;;;6266477;22;20167;-90
2022/10/22 04:57:57;;;;;;;35.75;17.05;;;;;;;;;;6267479;22;20172;-93
2022/10/22 05:01:09;;;;;;;37.80;18.63;;;;;;;;;;6266973;22;20167;-91
2022/10/22 05:04:15;;;;;;;40.28;18.83;;;;;;;;;;6193864;23;20211;-90
2022/10/22 05:07:20;;;;;;;41.30;20.38;;;;;;;;;;6266923;22;20175;-90
2022/10/22 05:10:27;;;;;;;46.58;21.30;;;;;;;;;;6265777;22;20172;-93
2022/10/22 05:13:32;;;;;;;47.10;21.33;;;;;;;;;;6267517;22;20156;-94
2022/10/22 05:16:38;;;;;;;40.53;19.58;;;;;;;;;;6268158;22;20163;-91
2022/10/22 05:19:43;;;;;;;47.72;20.55;;;;;;;;;;6267088;22;20168;-89
2022/10/22 05:22:48;;;;;;;43.80;20.67;;;;;;;;;;6266302;22;20207;-90
2022/10/22 05:25:55;;;;;;;42.38;22.15;;;;;;;;;;6268576;22;20542;-92
2022/10/22 05:29:00;;;;;;;47.40;22.75;;;;;;;;;;6265585;22;20527;-92
2022/10/22 05:32:06;;;;;;;50.35;23.38;;;;;;;;;;6268925;22;20194;-94
2022/10/22 05:35:11;;;;;;;50.03;23.45;;;;;;;;;;6268194;22;20511;-91
2022/10/22 05:38:17;;;;;;;48.28;23.60;;;;;;;;;;6266992;22;20175;-90
2022/10/22 05:41:24;;;;;;;48.30;23.67;;;;;;;;;;6268455;22;20622;-92
2022/10/22 05:44:35;;;;;;;52.50;25.10;;;;;;;;;;6267615;22;20532;-91
2022/10/22 05:47:40;;;;;;;52.30;25.02;;;;;;;;;;6269141;22;20242;-93
2022/10/22 05:50:49;;;;;;;59.78;24.67;;;;;;;;;;6267978;22;20611;-92
2022/10/22 05:53:55;;;;;;;55.00;26.05;;;;;;;;;;6267038;22;20180;-91
2022/10/22 05:57:25;;;;;;;52.90;25.55;;;;;;;;;;6270169;22;20175;-91
2022/10/22 06:00:33;;;;;;;55.05;25.48;;;;;;;;;;6268135;22;20167;-91
2022/10/22 06:03:44;;;;;;;61.28;26.88;;;;;;;;;;6269015;22;20156;-90
2022/10/22 06:06:50;;;;;;;55.85;26.15;;;;;;;;;;6269056;22;20155;-92
2022/10/22 06:09:55;;;;;;;55.22;26.20;;;;;;;;;;6271179;22;20167;-91
2022/10/22 06:13:02;;;;;;;56.28;26.35;;;;;;;;;;6270705;22;20203;-93
2022/10/22 06:16:08;;;;;;;62.15;26.30;;;;;;;;;;6270506;22;20210;-92
2022/10/22 06:19:14;;;;;;;56.22;26.38;;;;;;;;;;6272429;22;20155;-92
2022/10/22 06:22:20;;;;;;;58.95;26.95;;;;;;;;;;6271081;22;20589;-91
2022/10/22 06:25:25;;;;;;;60.80;26.75;;;;;;;;;;6271426;22;20184;-91
2022/10/22 06:28:31;;;;;;;65.57;28.08;;;;;;;;;;6272409;22;20171;-93
2022/10/22 06:31:37;;;;;;;53.38;26.90;;;;;;;;;;6272278;22;20187;-92
2022/10/22 06:34:45;;;;;;;52.50;26.50;;;;;;;;;;6271219;22;20167;-91
2022/10/22 06:37:49;;;;;;;60.78;27.25;;;;;;;;;;6272606;22;20180;-93
2022/10/22 06:40:55;;;;;;;57.33;27.25;;;;;;;;;;6271721;22;20210;-90
2022/10/22 06:44:38;;;;;;;59.55;27.33;;;;;;;;;;6273862;22;20211;-92
2022/10/22 06:47:46;;;;;;;59.63;28.38;;;;;;;;;;6272668;22;20194;-92
2022/10/22 06:50:51;;;;;;;63.08;27.67;;;;;;;;;;6273539;22;20566;-94
2022/10/22 06:53:56;;;;;;;58.55;28.00;;;;;;;;;;6271947;22;20168;-93
2022/10/22 06:57:02;;;;;;;56.88;26.90;;;;;;;;;;6270353;22;20211;-92
2022/10/22 07:00:12;;;;;;;60.97;27.85;;;;;;;;;;6271195;22;20171;-92
2022/10/22 07:03:20;;;;;;;56.45;26.75;;;;;;;;;;6271977;22;20207;-92
2022/10/22 07:06:26;;;;;;;57.28;26.70;;;;;;;;;;6269805;22;20164;-91
2022/10/22 07:09:31;;;;;;;54.60;26.30;;;;;;;;;;6269223;22;20194;-93
2022/10/22 07:12:37;;;;;;;57.75;27.90;;;;;;;;;;6269476;22;20209;-92
2022/10/22 07:15:42;;;;;;;55.38;26.92;;;;;;;;;;6269496;22;20222;-91
2022/10/22 07:18:51;;;;;;;57.00;26.38;;;;;;;;;;6273112;22;20167;-92
2022/10/22 07:21:57;;;;;;;59.33;27.50;;;;;;;;;;6272915;22;20240;-93
2022/10/22 07:25:02;;;;;;;60.53;27.98;;;;;;;;;;6269369;22;20198;-92
2022/10/22 07:28:31;;;;;;;58.53;26.55;;;;;;;;;;6272183;22;20176;-92
2022/10/22 07:31:37;;;;;;;60.97;26.90;;;;;;;;;;6273092;22;20179;-92
2022/10/22 07:34:43;;;;;;;50.92;25.10;;;;;;;;;;6274241;22;20186;-94
2022/10/22 07:37:49;;;;;;;62.95;29.52;;;;;;;;;;6271409;22;20172;-91
2022/10/22 07:40:54;;;;;;;58.58;28.33;;;;;;;;;;6272323;22;20172;-91
2022/10/22 07:44:27;;;;;;;67.45;31.67;;;;;;;;;;6269891;22;20156;-91
2022/10/22 07:47:33;;;;;;;63.13;27.50;;;;;;;;;;6269677;22;20265;-92
2022/10/22 07:50:39;;;;;;;57.38;27.65;;;;;;;;;;6270152;22;20164;-90
2022/10/22 07:53:45;;;;;;;54.00;25.75;;;;;;;;;;6269586;22;20168;-89
2022/10/22 07:56:50;;;;;;;57.22;26.67;;;;;;;;;;6269928;22;20171;-92
2022/10/22 07:59:57;;;;;;;59.28;26.40;;;;;;;;;;6268282;22;20194;-89
2022/10/22 08:03:02;;;;;;;60.40;26.63;;;;;;;;;;6269462;22;20168;-90
2022/10/22 08:06:10;;;;;;;61.13;28.30;;;;;;;;;;6271977;22;20509;-90
2022/10/22 08:09:16;;;;;;;58.40;28.23;;;;;;;;;;6272165;22;20164;-91
2022/10/22 08:12:22;;;;;;;58.05;27.65;;;;;;;;;;6269247;22;20164;-88
2022/10/22 08:15:27;;;;;;;64.28;31.83;;;;;;;;;;6267703;22;20176;-92
2022/10/22 08:18:32;;;;;;;78.10;35.75;;;;;;;;;;6269984;22;20151;-90
2022/10/22 08:21:39;;;;;;;108.07;50.15;;;;;;;;;;6270096;22;20168;-91
2022/10/22 08:24:45;;;;;;;69.68;34.28;;;;;;;;;;6269316;22;20191;-90
2022/10/22 08:27:50;;;;;;;52.45;26.50;;;;;;;;;;6267349;22;20176;-88
2022/10/22 08:30:56;;;;;;;54.92;26.13;;;;;;;;;;6269110;22;20291;-91
2022/10/22 08:34:01;;;;;;;49.47;24.55;;;;;;;;;;6268748;22;20193;-93
2022/10/22 08:37:09;;;;;;;41.20;21.15;;;;;;;;;;6269995;22;20171;-91
2022/10/22 08:40:20;;;;;;;44.88;22.13;;;;;;;;;;6271326;22;20173;-90
2022/10/22 08:43:43;;;;;;;46.63;22.55;;;;;;;;;;6267772;22;20694;-90
2022/10/22 08:47:04;;;;;;;42.60;20.80;;;;;;;;;;6269531;22;20164;-89
2022/10/22 08:50:11;;;;;;;41.05;20.65;;;;;;;;;;6270975;22;20233;-89
2022/10/22 08:53:19;;;;;;;49.15;21.17;;;;;;;;;;6272027;22;20291;-91
2022/10/22 08:56:26;;;;;;;41.10;20.75;;;;;;;;;;6271423;22;20244;-92
2022/10/22 08:59:41;;;;;;;39.58;20.45;;;;;;;;;;6269929;22;20176;-91
2022/10/22 09:02:51;;;;;;;40.40;20.33;;;;;;;;;;6269289;22;20205;-89
2022/10/22 09:06:00;;;;;;;40.33;19.85;;;;;;;;;;6271707;22;20279;-92
2022/10/22 09:13:27;;;;;;;38.08;19.00;;;;;;;;;;6197266;23;20128;-92
2022/10/22 09:16:41;;;;;;;36.60;19.75;;;;;;;;;;6272178;22;20249;-92
2022/10/22 09:19:51;;;;;;;38.75;20.50;;;;;;;;;;6271287;22;20167;-92
2022/10/22 09:23:03;;;;;;;37.25;19.73;;;;;;;;;;6270394;22;20498;-91
2022/10/22 09:26:13;;;;;;;36.28;19.58;;;;;;;;;;6268270;22;20195;-90
2022/10/22 09:29:22;;;;;;;40.83;20.65;;;;;;;;;;6270141;22;20210;-93
2022/10/22 09:32:35;;;;;;;37.13;20.50;;;;;;;;;;6269324;22;20176;-93
2022/10/22 09:35:45;;;;;;;38.35;19.63;;;;;;;;;;6270765;22;20179;-94
2022/10/22 09:38:56;;;;;;;36.58;19.48;;;;;;;;;;6269377;22;20168;-92
2022/10/22 09:42:01;;;;;;;44.85;22.88;;;;;;;;;;6268699;22;20167;-92
2022/10/22 09:45:37;;;;;;;41.28;20.92;;;;;;;;;;6268870;22;20211;-90
2022/10/22 09:48:47;;;;;;;37.33;17.95;;;;;;;;;;6272984;22;20224;-89
2022/10/22 09:51:54;;;;;;;34.88;17.65;;;;;;;;;;6272081;22;20172;-91
2022/10/22 09:55:02;;;;;;;35.33;17.98;;;;;;;;;;6272290;22;20168;-91
2022/10/22 09:58:10;;;;;;;32.53;16.92;;;;;;;;;;6270238;22;20195;-88
2022/10/22 10:01:20;;;;;;;28.65;16.15;;;;;;;;;;6269748;22;20228;-88
2022/10/22 10:04:28;;;;;;;30.58;15.48;;;;;;;;;;6272255;22;20214;-92
2022/10/22 10:07:34;;;;;;;33.88;17.83;;;;;;;;;;6271091;22;20152;-91
2022/10/22 10:10:42;;;;;;;34.00;15.55;;;;;;;;;;6269481;22;20171;-91
2022/10/22 10:13:50;;;;;;;31.73;17.25;;;;;;;;;;6270151;22;20179;-93
2022/10/22 10:16:58;;;;;;;31.20;17.30;;;;;;;;;;6270405;22;20239;-90
2022/10/22 10:20:14;;;;;;;32.22;15.48;;;;;;;;;;6270891;22;20176;-92
2022/10/22 10:23:25;;;;;;;27.70;15.95;;;;;;;;;;6269584;22;20172;-91
2022/10/22 10:26:36;;;;;;;32.50;15.50;;;;;;;;;;6270078;22;20196;-91
2022/10/22 10:33:44;;;;;;;26.88;13.98;;;;;;;;;;6271769;22;20168;-91
2022/10/22 10:36:58;;;;;;;26.58;14.05;;;;;;;;;;6268910;22;20256;-94
2022/10/22 10:40:20;;;;;;;23.88;13.52;;;;;;;;;;6269118;22;20220;-92
2022/10/22 10:43:38;;;;;;;25.67;13.63;;;;;;;;;;6269780;22;20187;-90
2022/10/22 10:46:50;;;;;;;24.88;12.77;;;;;;;;;;6271389;22;20199;-91
2022/10/22 10:50:01;;;;;;;21.55;12.18;;;;;;;;;;6272369;22;20180;-93
2022/10/22 10:53:15;;;;;;;27.08;12.48;;;;;;;;;;6270868;22;20176;-91
2022/10/22 10:56:30;;;;;;;22.73;13.27;;;;;;;;;;6272728;22;20152;-92
2022/10/22 10:59:45;;;;;;;32.17;14.90;;;;;;;;;;6275077;22;20172;-92
2022/10/22 11:03:04;;;;;;;22.48;11.88;;;;;;;;;;6278071;22;20213;-92
2022/10/22 11:06:11;;;;;;;29.95;14.05;;;;;;;;;;6260105;22;20191;-90
2022/10/22 11:09:25;;;;;;;27.63;12.68;;;;;;;;;;6275919;22;20226;-91
2022/10/22 11:12:36;;;;;;;20.85;10.68;;;;;;;;;;6274924;22;20164;-91
2022/10/22 11:15:42;;;;;;;20.73;11.35;;;;;;;;;;6274434;22;20221;-94
2022/10/22 11:18:49;;;;;;;22.88;11.77;;;;;;;;;;6274712;22;20298;-91
2022/10/22 11:21:58;;;;;;;18.27;10.05;;;;;;;;;;6273760;22;20168;-91
2022/10/22 11:25:16;;;;;;;20.80;11.35;;;;;;;;;;6274040;22;20664;-91
2022/10/22 11:28:26;;;;;;;20.10;10.95;;;;;;;;;;6274491;22;20180;-92
2022/10/22 11:31:33;;;;;;;17.85;10.93;;;;;;;;;;6274742;22;20242;-91
2022/10/22 11:34:41;;;;;;;20.40;10.23;;;;;;;;;;6273454;22;20194;-92
2022/10/22 11:37:49;;;;;;;15.82;9.20;;;;;;;;;;6273863;22;20210;-89
2022/10/22 11:40:58;;;;;;;15.82;9.73;;;;;;;;;;6274260;22;20163;-92
2022/10/22 11:48:17;;;;;;;13.23;7.53;;;;;;;;;;6202409;22;20210;-92
2022/10/22 11:51:39;;;;;;;15.82;7.13;;;;;;;;;;6272896;22;20491;-91
2022/10/22 11:54:46;;;;;;;14.75;7.07;;;;;;;;;;6272983;22;20163;-93
2022/10/22 11:57:57;;;;;;;13.18;6.68;;;;;;;;;;6271903;22;20172;-91
2022/10/22 12:01:22;;;;;;;11.43;6.28;;;;;;;;;;6271351;22;20180;-91
2022/10/22 12:04:48;;;;;;;12.75;7.30;;;;;;;;;;6277692;22;20176;-92
2022/10/22 12:07:55;;;;;;;13.82;7.05;;;;;;;;;;6276551;22;20614;-91
2022/10/22 22:20:40;;;;;;;16.80;7.60;;;;;;;;;;6339877;22;20211;-91
2022/10/22 22:23:49;;;;;;;40.58;7.45;;;;;;;;;;6381760;22;20222;-91
2022/10/22 22:26:54;;;;;;;34.45;7.55;;;;;;;;;;6382069;22;20309;-91
2022/10/22 22:29:59;;;;;;;28.23;7.40;;;;;;;;;;6383814;22;20171;-91
2022/10/22 22:33:04;;;;;;;18.27;6.55;;;;;;;;;;6382637;22;20231;-92
2022/10/22 22:36:11;;;;;;;42.63;6.40;;;;;;;;;;6382663;22;20143;-93
2022/10/22 22:39:17;;;;;;;39.58;7.30;;;;;;;;;;6382664;22;20240;-91
2022/10/22 22:42:23;;;;;;;37.20;7.22;;;;;;;;;;6383807;22;20168;-90
2022/10/22 22:45:34;;;;;;;26.45;7.00;;;;;;;;;;6383076;22;20155;-92
2022/10/22 22:48:40;;;;;;;56.33;6.53;;;;;;;;;;6383004;22;20168;-90
2022/10/22 22:51:46;;;;;;;30.98;6.95;;;;;;;;;;6383976;22;20164;-92
2022/10/22 22:54:51;;;;;;;37.88;7.68;;;;;;;;;;6385656;22;20206;-90
2022/10/22 22:57:56;;;;;;;16.95;5.30;;;;;;;;;;6386610;22;20148;-92
2022/10/22 23:01:12;;;;;;;22.33;5.45;;;;;;;;;;6386579;22;20185;-91
2022/10/22 23:04:21;;;;;;;8.80;5.72;;;;;;;;;;6386105;22;20172;-92
2022/10/22 23:07:28;;;;;;;12.15;5.18;;;;;;;;;;6384406;22;20187;-91
2022/10/22 23:10:33;;;;;;;14.43;5.82;;;;;;;;;;6383407;22;20191;-90
2022/10/22 23:13:38;;;;;;;21.20;5.38;;;;;;;;;;6382412;22;20163;-91
2022/10/22 23:16:45;;;;;;;48.95;5.82;;;;;;;;;;6384820;22;20156;-91
2022/10/22 23:19:51;;;;;;;22.83;5.50;;;;;;;;;;6383290;22;20384;-92
2022/10/22 23:22:57;;;;;;;24.58;5.05;;;;;;;;;;6383497;22;20160;-90
2022/10/22 23:26:02;;;;;;;33.30;5.75;;;;;;;;;;6383760;22;20191;-91
2022/10/22 23:29:09;;;;;;;27.65;5.45;;;;;;;;;;6384393;22;20205;-91
2022/10/22 23:32:14;;;;;;;17.63;4.95;;;;;;;;;;6385002;22;20186;-91
2022/10/22 23:35:20;;;;;;;25.67;9.77;;;;;;;;;;6383290;22;20167;-90
2022/10/22 23:38:26;;;;;;;36.15;8.45;;;;;;;;;;6384034;22;20163;-94
2022/10/22 23:41:32;;;;;;;17.90;6.78;;;;;;;;;;6386468;22;20152;-92
2022/10/22 23:44:43;;;;;;;13.90;5.85;;;;;;;;;;6384733;22;20238;-89
2022/10/22 23:47:49;;;;;;;28.88;14.45;;;;;;;;;;6368669;22;20195;-90
2022/10/22 23:50:55;;;;;;;26.20;6.15;;;;;;;;;;6384641;22;20444;-90
2022/10/22 23:54:04;;;;;;;10.13;5.53;;;;;;;;;;6385804;22;20164;-91
2022/10/22 23:57:09;;;;;;;17.65;6.00;;;;;;;;;;6387351;22;20221;-91
